createdAt,value
2023-01-11T00:00:23.326Z,2.92
2023-01-11T00:02:55.429Z,2.90
2023-01-11T00:05:22.267Z,4.18
2023-01-11T00:07:49.177Z,3.22
2023-01-11T00:10:15.901Z,3.00
2023-01-11T00:12:42.732Z,2.78
2023-01-11T00:15:10.024Z,2.42
2023-01-11T00:17:36.477Z,3.22
2023-01-11T00:20:03.192Z,1.98
2023-01-11T00:22:29.675Z,1.90
2023-01-11T00:24:56.408Z,1.60
2023-01-11T00:27:22.907Z,1.60
2023-01-11T00:29:52.074Z,1.67
2023-01-11T00:32:18.598Z,2.10
2023-01-11T00:34:45.180Z,2.17
2023-01-11T00:37:11.901Z,1.90
2023-01-11T00:39:38.453Z,1.70
2023-01-11T00:42:23.612Z,1.40
2023-01-11T00:47:54.274Z,1.98
2023-01-11T00:50:20.922Z,1.60
2023-01-11T00:52:47.413Z,1.90
2023-01-11T00:55:14.101Z,1.60
2023-01-11T00:57:40.537Z,1.67
2023-01-11T01:00:07.735Z,1.35
2023-01-11T01:02:34.479Z,1.60
2023-01-11T01:05:01.265Z,1.65
2023-01-11T01:07:27.902Z,1.60
2023-01-11T01:09:54.586Z,1.70
2023-01-11T01:12:40.226Z,1.92
2023-01-11T01:15:07.205Z,2.03
2023-01-11T01:17:33.740Z,1.52
2023-01-11T01:20:00.945Z,1.70
2023-01-11T01:22:27.660Z,1.65
2023-01-11T01:24:54.204Z,1.90
2023-01-11T01:27:20.819Z,2.13
2023-01-11T01:29:47.661Z,2.53
2023-01-11T01:32:14.286Z,2.10
2023-01-11T01:34:40.787Z,2.00
2023-01-11T01:37:08.180Z,2.03
2023-01-11T01:39:34.741Z,1.77
2023-01-11T01:42:01.451Z,1.77
2023-01-11T01:44:46.545Z,2.00
2023-01-11T01:47:13.922Z,2.45
2023-01-11T01:49:40.871Z,2.40
2023-01-11T01:52:08.249Z,1.92
2023-01-11T01:54:37.547Z,1.90
2023-01-11T01:57:10.960Z,2.00
2023-01-11T01:59:37.593Z,1.88
2023-01-11T02:02:04.540Z,3.20
2023-01-11T02:04:37.463Z,4.53
2023-01-11T02:07:14.772Z,4.00
2023-01-11T02:09:41.453Z,2.22
2023-01-11T02:12:08.641Z,2.55
2023-01-11T02:14:37.117Z,1.98
2023-01-11T02:17:06.648Z,2.40
2023-01-11T02:19:33.210Z,1.90
2023-01-11T02:22:18.461Z,1.65
2023-01-11T02:27:30.292Z,2.50
2023-01-11T02:30:09.589Z,2.58
2023-01-11T02:32:57.248Z,2.65
2023-01-11T02:35:35.400Z,2.38
2023-01-11T02:38:04.779Z,2.40
2023-01-11T02:40:37.387Z,1.92
2023-01-11T02:43:27.016Z,2.30
2023-01-11T02:46:09.013Z,1.92
2023-01-11T02:48:52.120Z,2.72
2023-01-11T02:51:18.550Z,2.63
2023-01-11T02:54:08.604Z,2.90
2023-01-11T02:56:38.199Z,2.40
2023-01-11T02:59:05.185Z,1.92
2023-01-11T03:01:31.886Z,1.67
2023-01-11T03:03:59.127Z,1.58
2023-01-11T03:06:43.684Z,1.42
2023-01-11T03:09:18.753Z,1.23
2023-01-11T03:14:48.824Z,2.08
2023-01-11T03:17:50.925Z,1.90
2023-01-11T03:20:17.639Z,2.80
2023-01-11T03:22:59.748Z,2.88
2023-01-11T03:25:46.617Z,3.53
2023-01-11T03:28:29.515Z,3.03
2023-01-11T03:31:31.447Z,4.15
2023-01-11T03:33:58.272Z,3.85
2023-01-11T03:36:24.685Z,4.35
2023-01-11T03:38:54.231Z,3.50
2023-01-11T03:41:24.524Z,4.45
2023-01-11T03:43:52.663Z,4.70
2023-01-11T03:46:24.367Z,5.55
2023-01-11T03:49:01.277Z,6.13
2023-01-11T03:51:30.567Z,4.25
2023-01-11T03:53:58.855Z,5.50
2023-01-11T03:56:30.304Z,5.90
2023-01-11T03:58:56.960Z,5.20
2023-01-11T04:01:24.529Z,5.47
2023-01-11T04:03:51.395Z,5.75
2023-01-11T04:06:18.580Z,6.75
2023-01-11T04:08:45.113Z,6.43
2023-01-11T04:11:11.594Z,6.88
2023-01-11T04:13:38.523Z,8.25
2023-01-11T04:16:05.157Z,6.63
2023-01-11T04:18:31.931Z,6.18
2023-01-11T04:20:59.461Z,6.32
2023-01-11T04:23:26.324Z,8.13
2023-01-11T04:25:53.394Z,8.80
2023-01-11T04:28:20.116Z,8.32
2023-01-11T04:30:46.708Z,6.88
2023-01-11T04:33:14.547Z,6.78
2023-01-11T04:35:41.981Z,5.80
2023-01-11T04:38:08.614Z,7.80
2023-01-11T04:40:35.171Z,7.30
2023-01-11T04:43:02.456Z,7.47
2023-01-11T04:45:30.220Z,7.97
2023-01-11T04:47:57.896Z,7.15
2023-01-11T04:50:24.643Z,8.10
2023-01-11T04:52:51.865Z,7.68
2023-01-11T04:55:18.524Z,9.65
2023-01-11T04:57:45.556Z,6.47
2023-01-11T05:00:12.594Z,6.82
2023-01-11T05:02:39.695Z,7.03
2023-01-11T05:05:06.865Z,7.22
2023-01-11T05:07:33.825Z,5.57
2023-01-11T05:10:00.544Z,6.78
2023-01-11T05:12:27.175Z,6.82
2023-01-11T05:14:53.674Z,4.93
2023-01-11T05:17:20.422Z,7.25
2023-01-11T05:19:46.998Z,5.57
2023-01-11T05:22:13.565Z,5.05
2023-01-11T05:24:40.159Z,5.63
2023-01-11T05:27:06.872Z,5.15
2023-01-11T05:29:33.366Z,5.70
2023-01-11T05:32:00.229Z,4.85
2023-01-11T05:34:27.022Z,6.35
2023-01-11T05:36:54.003Z,4.68
2023-01-11T05:39:23.026Z,5.88
2023-01-11T05:41:49.951Z,4.18
2023-01-11T05:44:36.804Z,3.78
2023-01-11T05:47:04.423Z,3.35
2023-01-11T05:49:31.218Z,3.30
2023-01-11T05:51:58.056Z,3.33
2023-01-11T05:54:24.601Z,3.10
2023-01-11T05:56:51.379Z,3.80
2023-01-11T05:59:17.874Z,4.25
2023-01-11T06:01:44.618Z,3.38
2023-01-11T06:04:11.257Z,3.35
2023-01-11T06:06:38.034Z,4.80
2023-01-11T06:09:04.583Z,4.00
2023-01-11T06:11:31.510Z,3.33
2023-01-11T06:13:58.209Z,4.13
2023-01-11T06:16:25.171Z,4.18
2023-01-11T06:18:52.779Z,4.32
2023-01-11T06:21:20.369Z,3.92
2023-01-11T06:23:48.600Z,3.53
2023-01-11T06:26:16.741Z,3.33
2023-01-11T06:28:43.942Z,4.13
2023-01-11T06:31:10.683Z,5.10
2023-01-11T06:33:37.311Z,4.47
2023-01-11T06:36:05.342Z,4.07
2023-01-11T06:38:31.960Z,3.70
2023-01-11T06:41:00.595Z,3.03
2023-01-11T06:43:28.458Z,3.40
2023-01-11T06:45:55.463Z,3.80
2023-01-11T06:48:22.724Z,3.53
2023-01-11T06:50:49.793Z,3.75
2023-01-11T06:53:16.548Z,3.60
2023-01-11T06:55:43.652Z,3.10
2023-01-11T06:58:10.767Z,4.25
2023-01-11T07:00:38.538Z,4.47
2023-01-11T07:03:06.100Z,4.53
2023-01-11T07:05:33.760Z,3.17
2023-01-11T07:08:00.540Z,3.05
2023-01-11T07:10:27.621Z,3.08
2023-01-11T07:12:54.698Z,2.80
2023-01-11T07:15:21.540Z,4.50
2023-01-11T07:17:54.220Z,3.70
2023-01-11T07:20:21.444Z,2.85
2023-01-11T07:22:48.146Z,3.58
2023-01-11T07:25:14.920Z,4.13
2023-01-11T07:27:41.469Z,3.05
2023-01-11T07:30:09.874Z,3.75
2023-01-11T07:32:36.635Z,3.40
2023-01-11T07:35:03.543Z,2.95
2023-01-11T07:37:32.741Z,3.22
2023-01-11T07:39:59.408Z,5.05
2023-01-11T07:42:45.003Z,3.78
2023-01-11T07:45:11.623Z,3.90
2023-01-11T07:47:38.235Z,3.83
2023-01-11T07:50:05.346Z,4.47
2023-01-11T07:52:32.134Z,3.50
2023-01-11T07:55:02.825Z,3.13
2023-01-11T07:57:34.657Z,3.78
2023-01-11T08:00:01.467Z,3.47
2023-01-11T08:02:38.683Z,3.80
2023-01-11T08:05:05.657Z,3.40
2023-01-11T08:07:32.457Z,4.65
2023-01-11T08:09:59.270Z,3.47
2023-01-11T08:12:44.515Z,3.20
2023-01-11T08:15:14.160Z,3.47
2023-01-11T08:17:40.952Z,2.95
2023-01-11T08:20:07.858Z,3.90
2023-01-11T08:22:34.743Z,3.15
2023-01-11T08:25:01.382Z,4.30
2023-01-11T08:27:28.096Z,3.58
2023-01-11T08:29:54.891Z,3.33
2023-01-11T08:32:27.630Z,3.85
2023-01-11T08:34:54.346Z,5.90
2023-01-11T08:37:23.892Z,4.45
2023-01-11T08:39:51.612Z,4.22
2023-01-11T08:42:18.287Z,3.35
2023-01-11T08:44:45.205Z,3.80
2023-01-11T08:47:11.948Z,3.40
2023-01-11T08:49:38.636Z,3.75
2023-01-11T08:52:05.410Z,3.85
2023-01-11T08:54:32.083Z,4.13
2023-01-11T08:56:58.654Z,4.40
2023-01-11T08:59:25.380Z,3.47
2023-01-11T09:01:52.161Z,4.35
2023-01-11T09:04:25.181Z,4.05
2023-01-11T09:06:53.091Z,3.72
2023-01-11T09:09:19.812Z,3.70
2023-01-11T09:11:55.514Z,4.47
2023-01-11T09:14:22.921Z,3.88
2023-01-11T09:16:49.489Z,4.38
2023-01-11T09:19:16.177Z,3.33
2023-01-11T09:21:43.371Z,4.13
2023-01-11T09:24:11.323Z,5.13
2023-01-11T09:26:38.650Z,4.25
2023-01-11T09:29:05.676Z,3.80
2023-01-11T09:31:32.266Z,4.25
2023-01-11T09:33:58.982Z,4.60
2023-01-11T09:36:27.811Z,4.63
2023-01-11T09:38:57.650Z,4.10
2023-01-11T09:41:27.530Z,4.00
2023-01-11T09:44:06.596Z,3.97
2023-01-11T09:46:33.809Z,4.78
2023-01-11T09:49:00.624Z,4.60
2023-01-11T09:51:31.306Z,4.95
2023-01-11T09:53:59.922Z,4.57
2023-01-11T09:56:31.421Z,3.40
2023-01-11T09:59:07.751Z,3.75
2023-01-11T10:01:45.583Z,3.13
2023-01-11T10:04:33.238Z,3.30
2023-01-11T10:07:15.595Z,5.65
2023-01-11T10:18:44.445Z,4.75
2023-01-11T10:19:18.848Z,4.80
2023-01-11T10:21:42.066Z,4.40
2023-01-11T10:24:17.682Z,5.70
2023-01-11T10:26:44.740Z,5.55
2023-01-11T10:29:31.495Z,3.97
2023-01-11T10:32:03.254Z,3.38
2023-01-11T10:35:10.345Z,4.68
2023-01-11T10:37:54.668Z,4.38
2023-01-11T10:40:37.808Z,4.88
2023-01-11T10:43:17.026Z,4.53
2023-01-11T10:45:52.138Z,4.28
2023-01-11T10:48:27.091Z,5.32
2023-01-11T10:53:25.211Z,4.72
2023-01-11T10:56:11.150Z,3.53
2023-01-11T10:58:46.845Z,4.30
2023-01-11T11:01:46.831Z,5.38
2023-01-11T11:04:26.160Z,4.15
2023-01-11T11:07:01.464Z,4.43
2023-01-11T11:09:37.480Z,4.97
2023-01-11T11:12:08.582Z,4.88
2023-01-11T11:14:58.238Z,4.93
2023-01-11T11:17:28.112Z,3.70
2023-01-11T11:19:54.921Z,4.63
2023-01-11T11:22:21.839Z,3.88
2023-01-11T11:24:48.702Z,5.22
2023-01-11T11:27:38.130Z,4.18
2023-01-11T11:30:05.159Z,4.32
2023-01-11T11:32:36.994Z,4.28
2023-01-11T11:35:04.232Z,4.32
2023-01-11T11:37:35.884Z,4.15
2023-01-11T11:40:02.941Z,4.97
2023-01-11T11:42:29.782Z,4.55
2023-01-11T11:45:05.534Z,4.65
2023-01-11T11:47:32.187Z,4.28
2023-01-11T11:50:42.375Z,4.05
2023-01-11T11:53:08.312Z,5.25
2023-01-11T11:55:35.540Z,4.75
2023-01-11T11:58:08.557Z,4.38
2023-01-11T12:00:40.180Z,4.38
2023-01-11T12:03:30.067Z,4.82
2023-01-11T12:06:03.753Z,5.20
2023-01-11T12:08:31.638Z,4.70
2023-01-11T12:11:06.170Z,4.65
2023-01-11T12:13:37.285Z,4.60
2023-01-11T12:16:06.082Z,3.92
2023-01-11T12:18:38.951Z,4.30
2023-01-11T12:21:09.696Z,4.35
2023-01-11T12:23:36.302Z,6.70
2023-01-11T12:26:04.347Z,3.67
2023-01-11T12:28:36.876Z,3.90
2023-01-11T12:31:15.799Z,4.93
2023-01-11T12:33:44.472Z,3.58
2023-01-11T12:36:19.328Z,3.45
2023-01-11T12:39:05.186Z,3.83
2023-01-11T12:41:44.323Z,4.43
2023-01-11T12:44:14.981Z,4.00
2023-01-11T12:46:54.075Z,4.70
2023-01-11T12:49:21.311Z,3.92
2023-01-11T12:52:06.944Z,3.33
2023-01-11T12:54:40.062Z,4.10
2023-01-11T12:57:22.196Z,3.63
2023-01-11T12:59:54.814Z,4.05
2023-01-11T13:02:37.113Z,4.20
2023-01-11T13:05:12.701Z,3.00
2023-01-11T13:07:47.891Z,4.28
2023-01-11T13:10:30.231Z,4.25
2023-01-11T13:13:06.009Z,3.65
2023-01-11T13:15:42.240Z,4.93
2023-01-11T13:18:31.717Z,4.75
2023-01-11T13:21:08.191Z,4.00
2023-01-11T13:23:44.337Z,4.50
2023-01-11T13:26:21.909Z,3.22
2023-01-11T13:28:57.891Z,4.43
2023-01-11T13:31:25.220Z,3.60
2023-01-11T13:33:55.169Z,4.47
2023-01-11T13:36:24.433Z,4.78
2023-01-11T13:39:09.635Z,3.65
2023-01-11T13:44:10.889Z,3.15
2023-01-11T13:49:42.908Z,3.17
2023-01-11T13:52:14.654Z,3.13
2023-01-11T13:54:56.705Z,3.00
2023-01-11T13:57:27.443Z,2.60
2023-01-11T13:59:57.578Z,4.82
2023-01-11T14:02:24.251Z,2.70
2023-01-11T14:05:19.917Z,3.42
2023-01-11T14:08:04.983Z,4.13
2023-01-11T14:10:50.098Z,3.75
2023-01-11T14:16:07.459Z,3.00
2023-01-11T14:18:47.982Z,3.05
2023-01-11T14:21:21.307Z,3.92
2023-01-11T14:23:50.054Z,2.90
2023-01-11T14:26:42.217Z,3.20
2023-01-11T14:29:44.051Z,3.40
2023-01-11T14:32:22.655Z,3.92
2023-01-11T14:34:57.071Z,2.95
2023-01-11T14:37:24.275Z,3.70
2023-01-11T14:40:14.171Z,3.35
2023-01-11T14:43:00.285Z,3.85
2023-01-11T14:45:31.487Z,2.75
2023-01-11T14:47:58.888Z,3.80
2023-01-11T14:50:31.103Z,4.47
2023-01-11T14:52:59.030Z,3.20
2023-01-11T14:55:27.937Z,3.53
2023-01-11T14:58:02.924Z,3.53
2023-01-11T15:00:29.536Z,3.75
2023-01-11T15:03:02.464Z,3.50
2023-01-11T15:05:34.282Z,2.75
2023-01-11T15:08:13.198Z,3.92
2023-01-11T15:10:55.162Z,3.28
2023-01-11T15:13:24.157Z,2.75
2023-01-11T15:16:10.296Z,2.92
2023-01-11T15:18:42.859Z,3.38
2023-01-11T15:21:13.954Z,2.92
2023-01-11T15:23:48.732Z,2.55
2023-01-11T15:26:16.969Z,4.18
2023-01-11T15:28:44.250Z,3.90
2023-01-11T15:31:30.846Z,4.57
2023-01-11T15:34:05.499Z,3.08
2023-01-11T15:36:52.310Z,3.17
2023-01-11T15:39:23.239Z,4.05
2023-01-11T15:42:04.977Z,2.85
2023-01-11T15:44:37.567Z,2.78
2023-01-11T15:47:16.924Z,3.13
2023-01-11T15:50:02.265Z,3.72
2023-01-11T15:54:58.779Z,3.13
2023-01-11T15:57:34.167Z,2.47
2023-01-11T16:00:21.636Z,2.95
2023-01-11T16:02:57.411Z,2.80
2023-01-11T16:05:25.357Z,2.60
2023-01-11T16:07:54.808Z,3.38
2023-01-11T16:10:31.000Z,2.40
2023-01-11T16:13:07.384Z,2.45
2023-01-11T16:15:48.659Z,3.05
2023-01-11T16:18:24.631Z,2.67
2023-01-11T16:21:05.783Z,4.00
2023-01-11T16:23:33.807Z,2.78
2023-01-11T16:26:01.462Z,2.75
2023-01-11T16:28:28.563Z,3.10
2023-01-11T16:31:00.139Z,3.17
2023-01-11T16:33:28.166Z,2.60
2023-01-11T16:36:11.658Z,2.97
2023-01-11T16:38:43.873Z,4.03
2023-01-11T16:41:13.164Z,3.08
2023-01-11T16:43:42.152Z,3.33
2023-01-11T16:46:16.492Z,3.60
2023-01-11T16:48:43.492Z,3.47
2023-01-11T16:51:14.318Z,3.88
2023-01-11T16:53:42.435Z,3.90
2023-01-11T16:56:15.222Z,3.95
2023-01-11T16:58:41.848Z,3.95
2023-01-11T17:01:09.874Z,3.53
2023-01-11T17:03:36.680Z,3.63
2023-01-11T17:06:15.416Z,3.25
2023-01-11T17:08:43.400Z,4.32
2023-01-11T17:11:16.061Z,3.55
2023-01-11T17:13:54.679Z,3.17
2023-01-11T17:16:24.349Z,3.35
2023-01-11T17:18:51.418Z,3.65
2023-01-11T17:21:18.093Z,2.85
2023-01-11T17:23:45.158Z,3.25
2023-01-11T17:26:16.576Z,4.18
2023-01-11T17:28:47.785Z,3.00
2023-01-11T17:31:22.978Z,3.72
2023-01-11T17:33:59.021Z,3.30
2023-01-11T17:36:25.927Z,2.95
2023-01-11T17:38:54.353Z,3.63
2023-01-11T17:41:41.417Z,3.47
2023-01-11T17:44:32.173Z,3.00
2023-01-11T17:46:58.845Z,4.13
2023-01-11T17:49:25.805Z,3.00
2023-01-11T17:51:52.608Z,3.83
2023-01-11T17:54:20.864Z,3.78
2023-01-11T17:57:00.902Z,3.35
2023-01-11T17:59:33.106Z,3.50
2023-01-11T18:02:13.257Z,3.88
2023-01-11T18:04:40.331Z,3.58
2023-01-11T18:07:08.790Z,4.18
2023-01-11T18:09:45.965Z,3.67
2023-01-11T18:12:31.721Z,4.50
2023-01-11T18:15:00.087Z,5.18
2023-01-11T18:17:35.078Z,4.97
2023-01-11T18:20:04.080Z,4.13
2023-01-11T18:22:40.581Z,3.47
2023-01-11T18:25:18.204Z,4.47
2023-01-11T18:27:46.656Z,4.22
2023-01-11T18:30:31.655Z,3.88
2023-01-11T18:32:59.429Z,3.63
2023-01-11T18:35:26.000Z,4.47
2023-01-11T18:37:52.799Z,5.28
2023-01-11T18:40:19.598Z,5.45
2023-01-11T18:42:47.442Z,4.30
2023-01-11T18:45:14.707Z,5.88
2023-01-11T18:47:41.562Z,4.65
2023-01-11T18:50:12.476Z,3.95
2023-01-11T18:52:39.377Z,5.47
2023-01-11T18:55:06.748Z,4.75
2023-01-11T18:57:33.369Z,3.90
2023-01-11T19:00:00.162Z,3.88
2023-01-11T19:02:29.235Z,4.15
2023-01-11T19:04:57.076Z,5.25
2023-01-11T19:07:25.363Z,4.20
2023-01-11T19:09:55.066Z,4.50
2023-01-11T19:12:23.719Z,4.57
2023-01-11T19:14:50.942Z,4.65
2023-01-11T19:17:17.991Z,4.55
2023-01-11T19:19:44.708Z,4.28
2023-01-11T19:22:11.775Z,4.72
2023-01-11T19:24:39.668Z,4.60
2023-01-11T19:27:06.426Z,3.50
2023-01-11T19:29:33.640Z,5.60
2023-01-11T19:32:00.279Z,4.50
2023-01-11T19:34:26.851Z,3.50
2023-01-11T19:36:53.915Z,3.15
2023-01-11T19:39:20.609Z,3.97
2023-01-11T19:42:02.120Z,4.43
2023-01-11T19:44:32.890Z,3.30
2023-01-11T19:47:11.478Z,3.95
2023-01-11T19:49:42.399Z,3.42
2023-01-11T19:52:13.585Z,3.78
2023-01-11T19:54:43.167Z,4.78
2023-01-11T19:57:14.562Z,3.80
2023-01-11T19:59:41.766Z,3.47
2023-01-11T20:02:10.051Z,4.53
2023-01-11T20:04:37.383Z,4.03
2023-01-11T20:07:04.304Z,4.60
2023-01-11T20:09:31.113Z,3.65
2023-01-11T20:11:59.222Z,3.58
2023-01-11T20:14:26.021Z,4.75
2023-01-11T20:16:53.220Z,4.25
2023-01-11T20:19:19.949Z,3.50
2023-01-11T20:21:49.109Z,4.10
2023-01-11T20:24:15.851Z,4.43
2023-01-11T20:26:42.548Z,3.90
2023-01-11T20:53:25.097Z,3.83
2023-01-11T20:56:12.534Z,1.83
2023-01-11T21:08:00.962Z,1.65
2023-01-11T21:13:40.204Z,1.88
2023-01-11T21:16:28.653Z,2.28
2023-01-11T21:22:27.464Z,1.85
2023-01-11T21:24:54.788Z,2.67
2023-01-11T21:27:32.752Z,2.33
2023-01-11T22:31:48.108Z,3.15
2023-01-11T22:34:41.125Z,2.78
2023-01-11T22:37:07.779Z,3.08
2023-01-11T22:39:34.423Z,3.80
2023-01-11T22:42:01.099Z,3.35
2023-01-11T22:44:30.503Z,3.95
2023-01-11T22:46:57.145Z,4.10
2023-01-11T22:49:23.662Z,4.43
2023-01-11T22:51:50.378Z,5.20
2023-01-11T22:54:17.102Z,4.07
2023-01-11T22:56:43.907Z,4.88
2023-01-11T22:59:10.985Z,6.25
2023-01-11T23:01:41.426Z,5.82
2023-01-11T23:04:09.109Z,7.53
2023-01-11T23:06:39.956Z,7.63
2023-01-11T23:09:07.997Z,6.90
2023-01-11T23:11:55.484Z,5.80
2023-01-11T23:14:22.545Z,6.70
2023-01-11T23:16:49.949Z,7.72
2023-01-11T23:19:17.842Z,8.65
2023-01-11T23:21:44.993Z,8.82
2023-01-11T23:24:12.545Z,7.47
2023-01-11T23:26:39.324Z,9.15
2023-01-11T23:29:12.167Z,7.57
2023-01-11T23:31:42.445Z,5.03
2023-01-11T23:34:14.671Z,5.93
2023-01-11T23:36:42.252Z,7.15
2023-01-11T23:39:12.957Z,6.90
2023-01-11T23:41:58.333Z,7.05
2023-01-11T23:47:10.537Z,7.07
2023-01-11T23:49:39.924Z,6.28
2023-01-11T23:52:06.866Z,6.38
2023-01-11T23:54:34.269Z,6.10
2023-01-11T23:57:01.623Z,7.45
2023-01-11T23:59:28.656Z,7.60
